Muonio, Finland

9:43 AM EET on February 28, 2017 (GMT +0200)
Enontekio | | Change Station

Elev 1004 ft 68.36 °N, 23.42 °E | Updated 23 minutes ago

Snow
Snow
12 °F
Feels Like 12 °F
N
1
Wind Variable Wind from NE

Today
High -- | Low -- °F
--% Chance of Precip.
Yesterday
High -- | Low -- °F
Precip. -- in
Pressure 29.42 in
Visibility 4.3 miles
Clouds Overcast 1300 ft
Dew Point 10 °F
Humidity 92%
Rainfall 0.00 in
Snow Depth Not available.
7:48 AM 5:28 PM
Waxing Crescent, 4% visible
METAR EFET 280720Z AUTO 05001KT 7000 -SN OVC013 M11/M12 Q0996
Pressure 29.42 in
Visibility 4.3 miles
Clouds Overcast 1300 ft
Dew Point 10 °F
Humidity 92%
Rainfall 0.00 in
Snow Depth Not available.
7:48 AM 5:28 PM
Waxing Crescent, 4% visible
METAR EFET 280720Z AUTO 05001KT 7000 -SN OVC013 M11/M12 Q0996

Get Your Daily Forecast Email!

Thanks for signing up!

Be on the lookout for a verification email in your inbox.

You'll start receiving the daily forecast at 8 AM.

×

10-Day Weather Forecast

×

Almanac

Astronomy

Feb. 28, 2017 Rise Set
Actual Time
Civil Twilight
Nautical Twilight
Astronomical Twilight
Moon
Length of Visible Light
Length of Day
Tomorrow will be .
, % of the Moon is Illuminated

Today's Extremes

Country Highs Country Lows

Community

WunderPhotos

Upload Photos

1,962,540 photos uploaded!

WunderBlog® & News

Nearby

Air Quality

  Air Quality AQ Index Pollutant
Not available.

Snow Depth

Station Depth Elevation

Earthquake Activity

City Distance Mag. Time & Date
Minimum magnitude displayed is 2.5.

Coastal Water Temperatures

Place Temperature

Stations

Nearby Weather Stations

Station Location Temp. Windchill Dew Point Humidity Wind Precip. Elev Updated Type